Rock Springs, WY

1:18 AM MDT on May 24, 2017 (GMT -0600)
Rock Springs-Sweetwater | | Change Station
Active Advisory: Special Statement

Elev 6759 ft 41.59 °N, 109.07 °W | Updated 24 minutes ago

Clear
Clear
53 °F
Feels Like 53 °F
N
12
Wind Variable Wind from SW

Today
High -- | Low -- °F
--% Chance of Precip.
Yesterday
High -- | Low -- °F
Precip. -- in
Pressure 29.89 in
Visibility 10.0 miles
Clouds Clear
Dew Point 39 °F
Humidity 59%
Rainfall 0.00 in
Snow Depth Not available.
5:48 AM 8:37 PM
Waning Crescent, 4% visible
METAR KRKS 240654Z AUTO 23010KT 10SM CLR 12/04 A3007 RMK AO2 SLP121 T01170039 402000011
Pressure 29.89 in
Visibility 10.0 miles
Clouds Clear
Dew Point 39 °F
Humidity 59%
Rainfall 0.00 in
Snow Depth Not available.
5:48 AM 8:37 PM
Waning Crescent, 4% visible
METAR KRKS 240654Z AUTO 23010KT 10SM CLR 12/04 A3007 RMK AO2 SLP121 T01170039 402000011

Get Your Daily Forecast Email!

Thanks for signing up!

Be on the lookout for a verification email in your inbox.

You'll start receiving severe weather alerts in your inbox..

×

10-Day Weather Forecast

Almanac

Astronomy

May. 24, 2017 Rise Set
Actual Time
Civil Twilight
Nautical Twilight
Astronomical Twilight
Moon
Length of Visible Light
Length of Day
Tomorrow will be .
, % of the Moon is Illuminated

Today's Extremes

State Highs State Lows

Community

WunderPhotos

Category 6

Welcome to Category 6. This is the collective home for Weather Underground's featured writeups by Dr. Jeff Masters (right), Bob Henson (left), Chris Burt, and other regular contributors.

Nearby

Air Quality

  Air Quality AQ Index Pollutant
Not available.

Snow Depth

Station Depth Elevation

Earthquake Activity

City Distance Mag. Time & Date
Minimum magnitude displayed is 2.5.

Coastal Water Temperatures

Place Temperature

Stations

Nearby Weather Stations

Station Location Temp. Windchill Dew Point Humidity Wind Precip. Elev Updated Type
                   

Watches & Warnings

Special Statement
Issued: 1:10 AM MDT May. 24, 2017 – National Weather Service

West winds increase this afternoon to 20 to 30 mph with gusts to
40 to 50 mph at times before decreasing around sunset. Travelers,
especially thoise towing trailers and in high profile vehicles,
are urged to watch for strong Crosswinds when traveling this
afternoon.



110 am MDT Wed may 24 2017

West winds increase this afternoon to 20 to 30 mph with gusts to
40 to 50 mph at times before decreasing around sunset. Travelers,
especially thoise towing trailers and in high profile vehicles,
are urged to watch for strong Crosswinds when traveling this
afternoon.